Time;durP1;ratioP1;P1;durP2;ratioP2;P2;SDS_P1;SDS_P2;PMS_P1;PMS_P2;Temp;Humidity;BMP_temperature;BMP_pressure;BME280_temperature;BME280_humidity;BME280_pressure;Samples;Min_cycle;Max_cycle;Signal;HPM_P1;HPM_P2
2023/12/27 00:00:36;;;;;;;7.47;5.80;;;10.30;99.90;;;;;;5052976;28;20186;-65
2023/12/27 00:03:02;;;;;;;7.00;6.40;;;10.30;99.90;;;;;;5069277;28;20428;-65
2023/12/27 00:05:28;;;;;;;6.27;5.67;;;10.30;99.90;;;;;;5083999;28;20441;-65
2023/12/27 00:07:54;;;;;;;7.57;6.10;;;10.30;99.90;;;;;;5094001;28;20487;-62
2023/12/27 00:10:20;;;;;;;6.50;5.90;;;10.20;99.90;;;;;;5072894;28;20517;-67
2023/12/27 00:12:46;;;;;;;5.90;5.50;;;10.20;99.90;;;;;;5078384;28;20211;-67
2023/12/27 00:15:12;;;;;;;10.37;6.47;;;10.20;99.90;;;;;;5058288;28;20289;-67
2023/12/27 00:17:37;;;;;;;7.80;6.20;;;10.20;99.90;;;;;;5071596;28;20494;-67
2023/12/27 00:20:04;;;;;;;6.70;6.20;;;10.10;99.90;;;;;;5071486;28;20501;-67
2023/12/27 00:22:29;;;;;;;6.70;6.10;;;10.10;99.90;;;;;;5070261;28;20249;-67
2023/12/27 00:24:55;;;;;;;6.57;5.97;;;10.10;99.90;;;;;;5057417;28;20426;-61
2023/12/27 00:27:21;;;;;;;7.30;6.43;;;10.10;99.90;;;;;;5071667;28;20282;-67
2023/12/27 00:29:46;;;;;;;8.60;6.20;;;10.10;99.90;;;;;;5079096;28;20704;-67
2023/12/27 00:32:12;;;;;;;6.97;6.40;;;10.00;99.90;;;;;;5074338;28;20542;-67
2023/12/27 00:34:38;;;;;;;7.67;6.13;;;10.00;99.90;;;;;;5071280;28;20193;-68
2023/12/27 00:37:05;;;;;;;8.07;6.43;;;10.00;99.90;;;;;;5086021;28;20194;-68
2023/12/27 00:39:31;;;;;;;11.13;6.47;;;10.00;99.90;;;;;;5086422;28;20847;-68
2023/12/27 00:41:57;;;;;;;7.80;6.47;;;10.00;99.90;;;;;;5073819;28;20478;-61
2023/12/27 00:44:23;;;;;;;7.93;6.07;;;10.00;99.90;;;;;;5075052;28;20180;-68
2023/12/27 00:46:49;;;;;;;9.33;5.87;;;10.00;99.90;;;;;;5076802;28;20470;-67
2023/12/27 00:49:16;;;;;;;6.43;5.50;;;10.00;99.90;;;;;;5054304;28;20417;-67
2023/12/27 00:51:41;;;;;;;7.07;5.90;;;9.90;99.90;;;;;;5093810;28;20183;-68
2023/12/27 00:54:07;;;;;;;6.33;5.70;;;9.90;99.90;;;;;;5085142;28;20432;-67
2023/12/27 00:56:33;;;;;;;6.90;5.90;;;9.90;99.90;;;;;;5088296;28;20648;-68
2023/12/27 00:58:59;;;;;;;10.47;5.83;;;9.90;99.90;;;;;;5072521;28;20191;-61
2023/12/27 01:01:25;;;;;;;6.50;5.77;;;9.90;99.90;;;;;;5075372;28;20434;-67
2023/12/27 01:03:51;;;;;;;9.27;5.30;;;9.90;99.90;;;;;;5061700;28;20268;-67
2023/12/27 01:06:17;;;;;;;7.00;6.20;;;9.90;99.90;;;;;;5055266;28;20641;-64
2023/12/27 01:08:42;;;;;;;7.20;5.37;;;9.90;99.90;;;;;;5068480;28;20242;-67
2023/12/27 01:11:08;;;;;;;7.90;6.10;;;9.90;99.90;;;;;;5081509;28;20598;-67
2023/12/27 01:13:34;;;;;;;10.13;5.80;;;9.90;99.90;;;;;;5073586;28;20202;-66
2023/12/27 01:16:00;;;;;;;7.83;6.00;;;9.90;99.90;;;;;;5072305;28;20240;-61
2023/12/27 01:18:26;;;;;;;7.50;5.83;;;9.80;99.90;;;;;;5087691;28;20230;-67
2023/12/27 01:20:52;;;;;;;10.70;7.37;;;9.80;99.90;;;;;;5072440;28;20458;-66
2023/12/27 01:23:18;;;;;;;12.53;5.33;;;9.70;99.90;;;;;;5073407;28;20449;-67
2023/12/27 01:25:43;;;;;;;6.83;5.30;;;9.70;99.90;;;;;;5074665;28;20178;-66
2023/12/27 01:28:09;;;;;;;7.90;5.63;;;9.70;99.90;;;;;;5067450;28;20196;-66
2023/12/27 01:30:35;;;;;;;12.63;7.03;;;9.60;99.90;;;;;;5057281;28;20547;-67
2023/12/27 01:33:01;;;;;;;7.90;6.17;;;9.60;99.90;;;;;;5076976;28;20179;-61
2023/12/27 01:35:27;;;;;;;9.80;6.50;;;9.60;99.90;;;;;;5070300;28;20457;-67
2023/12/27 01:37:53;;;;;;;8.50;6.03;;;9.60;99.90;;;;;;5075149;28;20241;-67
2023/12/27 01:40:19;;;;;;;13.10;6.57;;;9.60;99.90;;;;;;5064953;28;20201;-67
2023/12/27 01:42:45;;;;;;;7.27;5.83;;;9.60;99.90;;;;;;5070229;28;20576;-67
2023/12/27 01:45:10;;;;;;;10.37;6.70;;;9.60;99.90;;;;;;5069758;28;20518;-66
2023/12/27 01:47:37;;;;;;;6.93;5.80;;;9.60;99.90;;;;;;5053270;28;20207;-66
2023/12/27 01:50:09;;;;;;;7.50;6.13;;;9.60;99.90;;;;;;5062524;28;20186;-60
2023/12/27 01:52:39;;;;;;;8.57;6.20;;;9.60;99.90;;;;;;5057902;28;20894;-66
2023/12/27 01:55:07;;;;;;;6.30;5.67;;;9.60;99.90;;;;;;5056541;28;20431;-64
2023/12/27 01:57:32;;;;;;;8.10;6.77;;;9.60;99.90;;;;;;5060174;28;20873;-65
2023/12/27 01:59:59;;;;;;;8.60;6.17;;;9.50;99.90;;;;;;5057862;28;20444;-66
2023/12/27 02:02:25;;;;;;;8.60;5.80;;;9.40;99.90;;;;;;5066606;28;20439;-66
2023/12/27 02:04:50;;;;;;;8.73;5.63;;;9.40;99.90;;;;;;5063740;28;20442;-66
2023/12/27 02:07:17;;;;;;;11.77;6.03;;;9.30;99.90;;;;;;5060023;28;20454;-66
2023/12/27 02:09:44;;;;;;;8.80;6.30;;;9.30;99.90;;;;;;5058891;28;20211;-65
2023/12/27 02:12:09;;;;;;;8.50;6.23;;;9.20;99.90;;;;;;5067159;28;20430;-65
2023/12/27 02:14:37;;;;;;;6.80;6.10;;;9.20;99.90;;;;;;5056106;28;20524;-65
2023/12/27 02:17:03;;;;;;;8.53;6.13;;;9.10;99.90;;;;;;5061456;28;20456;-61
2023/12/27 02:19:29;;;;;;;6.90;6.20;;;9.10;99.90;;;;;;5069104;28;20436;-66
2023/12/27 02:21:57;;;;;;;9.60;6.03;;;9.10;99.90;;;;;;5057919;28;20483;-66
2023/12/27 02:24:26;;;;;;;7.27;5.40;;;9.00;99.90;;;;;;5071092;28;21039;-66
2023/12/27 02:26:52;;;;;;;7.77;5.80;;;9.00;99.90;;;;;;5055792;28;20456;-66
2023/12/27 02:29:17;;;;;;;7.30;6.17;;;8.90;99.90;;;;;;5057693;28;20835;-63
2023/12/27 02:31:43;;;;;;;8.60;6.40;;;8.90;99.90;;;;;;5051848;28;20185;-66
2023/12/27 02:34:09;;;;;;;9.77;5.90;;;8.90;99.90;;;;;;5066227;28;20185;-66
2023/12/27 02:36:37;;;;;;;9.23;6.60;;;8.80;99.90;;;;;;5055076;28;20178;-66
2023/12/27 02:39:03;;;;;;;10.30;6.00;;;8.80;99.90;;;;;;5054974;28;20265;-64
2023/12/27 02:41:28;;;;;;;7.57;6.87;;;8.80;99.90;;;;;;5062480;28;20530;-66
2023/12/27 02:43:54;;;;;;;7.80;6.80;;;8.80;99.90;;;;;;5055514;28;20174;-66
2023/12/27 02:46:20;;;;;;;7.50;6.60;;;8.80;99.90;;;;;;5058092;28;20661;-66
2023/12/27 02:48:46;;;;;;;10.47;6.83;;;8.80;99.90;;;;;;5072536;28;20179;-67
2023/12/27 02:51:11;;;;;;;8.00;6.80;;;8.80;99.90;;;;;;5073333;28;20176;-66
2023/12/27 02:53:37;;;;;;;12.37;6.57;;;8.80;99.90;;;;;;5063269;28;20231;-66
2023/12/27 02:56:03;;;;;;;7.80;7.00;;;8.80;99.90;;;;;;5066903;28;20190;-67
2023/12/27 02:58:29;;;;;;;9.30;6.97;;;8.80;99.90;;;;;;5066548;28;20194;-66
2023/12/27 03:00:54;;;;;;;13.23;7.97;;;8.80;99.90;;;;;;5070212;28;20418;-66
2023/12/27 03:03:20;;;;;;;11.73;7.20;;;8.80;99.90;;;;;;5060454;28;20509;-66
2023/12/27 03:05:46;;;;;;;10.57;8.50;;;8.80;99.90;;;;;;5052614;28;20197;-66
2023/12/27 03:08:11;;;;;;;12.10;7.47;;;8.80;99.90;;;;;;5051568;28;20175;-66
2023/12/27 03:10:37;;;;;;;9.10;7.20;;;8.80;99.90;;;;;;5087870;28;20181;-66
2023/12/27 03:13:03;;;;;;;8.30;6.90;;;8.80;99.90;;;;;;5074153;28;20250;-66
2023/12/27 03:15:29;;;;;;;10.80;7.10;;;8.80;99.90;;;;;;5053939;28;20232;-67
2023/12/27 03:17:55;;;;;;;11.77;7.60;;;8.80;99.90;;;;;;5076158;28;20435;-67
2023/12/27 03:20:20;;;;;;;8.07;6.60;;;8.80;99.90;;;;;;5075727;28;20423;-66
2023/12/27 03:22:46;;;;;;;7.63;6.90;;;8.80;99.90;;;;;;5091770;28;20182;-66
2023/12/27 03:25:12;;;;;;;6.17;5.67;;;8.70;99.90;;;;;;5088017;28;20261;-66
2023/12/27 03:27:39;;;;;;;7.40;6.70;;;8.70;99.90;;;;;;5055208;28;20205;-67
2023/12/27 03:30:05;;;;;;;7.73;6.93;;;8.70;99.90;;;;;;5072178;28;20191;-66
2023/12/27 03:32:31;;;;;;;8.90;7.37;;;8.60;99.90;;;;;;5063913;28;20436;-66
2023/12/27 03:34:57;;;;;;;9.07;6.80;;;8.60;99.90;;;;;;5068093;28;20857;-66
2023/12/27 03:37:22;;;;;;;11.13;7.53;;;8.50;99.90;;;;;;5062500;28;20208;-65
2023/12/27 03:39:50;;;;;;;10.73;7.70;;;8.60;99.90;;;;;;5072815;28;20184;-66
2023/12/27 03:42:19;;;;;;;8.40;7.60;;;8.50;99.90;;;;;;5060998;28;20678;-66
2023/12/27 03:44:46;;;;;;;8.90;7.80;;;8.50;99.90;;;;;;5062086;28;20439;-66
2023/12/27 03:47:11;;;;;;;13.40;7.33;;;8.50;99.90;;;;;;5066058;28;20458;-63
2023/12/27 03:49:37;;;;;;;9.80;7.20;;;8.40;99.90;;;;;;5077131;28;20943;-67
2023/12/27 03:52:03;;;;;;;13.53;7.40;;;8.40;99.90;;;;;;5063415;28;20180;-66
2023/12/27 03:54:29;;;;;;;9.20;7.40;;;8.40;99.90;;;;;;5061496;28;20321;-65
2023/12/27 03:56:55;;;;;;;13.53;7.63;;;8.40;99.90;;;;;;5090884;28;21025;-66
2023/12/27 03:59:20;;;;;;;9.70;7.50;;;8.40;99.90;;;;;;5060769;28;20200;-66
2023/12/27 04:01:46;;;;;;;13.10;7.70;;;8.40;99.90;;;;;;5064430;28;20189;-66
2023/12/27 04:04:13;;;;;;;11.43;7.23;;;8.40;99.90;;;;;;5088588;28;20191;-61
2023/12/27 04:06:39;;;;;;;12.20;8.10;;;8.40;99.90;;;;;;5075733;28;20224;-66
2023/12/27 04:09:05;;;;;;;11.60;8.03;;;8.40;99.90;;;;;;5074333;28;20466;-66
2023/12/27 04:11:30;;;;;;;9.10;7.60;;;8.40;99.90;;;;;;5070005;28;20176;-67
2023/12/27 04:13:56;;;;;;;9.80;7.77;;;8.40;99.90;;;;;;5070920;28;20181;-67
2023/12/27 04:16:22;;;;;;;14.50;8.70;;;8.40;99.90;;;;;;5062859;28;20799;-65
2023/12/27 04:18:47;;;;;;;10.77;8.40;;;8.30;99.90;;;;;;5064988;28;20182;-66
2023/12/27 04:21:13;;;;;;;10.87;8.50;;;8.30;99.90;;;;;;5060152;28;20173;-60
2023/12/27 04:23:39;;;;;;;13.83;8.50;;;8.30;99.90;;;;;;5058103;28;20626;-66
2023/12/27 04:26:05;;;;;;;9.50;8.50;;;8.30;99.90;;;;;;5070199;28;20235;-66
2023/12/27 04:28:31;;;;;;;10.57;8.40;;;8.30;99.90;;;;;;5062426;28;20927;-66
2023/12/27 04:30:57;;;;;;;11.67;8.60;;;8.30;99.90;;;;;;5052807;28;20177;-66
2023/12/27 04:33:23;;;;;;;13.10;9.50;;;8.30;99.90;;;;;;5079986;28;20792;-66
2023/12/27 04:35:49;;;;;;;16.60;9.80;;;8.30;99.90;;;;;;5060273;28;20177;-66
2023/12/27 04:38:15;;;;;;;11.40;8.80;;;8.20;99.90;;;;;;5061211;28;20420;-60
2023/12/27 04:40:47;;;;;;;14.53;9.57;;;8.30;99.90;;;;;;5058773;28;20204;-67
2023/12/27 04:43:13;;;;;;;12.10;9.03;;;8.20;99.90;;;;;;5067105;28;20189;-60
2023/12/27 04:45:38;;;;;;;14.50;9.37;;;8.20;99.90;;;;;;5062467;28;20439;-66
2023/12/27 04:48:05;;;;;;;11.47;8.40;;;8.30;99.90;;;;;;5068566;28;20476;-66
2023/12/27 04:50:30;;;;;;;15.23;8.90;;;8.30;99.90;;;;;;5054885;28;20316;-65
2023/12/27 04:52:56;;;;;;;14.20;9.03;;;8.30;99.90;;;;;;5055143;28;20854;-67
2023/12/27 04:55:22;;;;;;;11.53;8.93;;;8.30;99.90;;;;;;5058069;28;20166;-66
2023/12/27 04:57:47;;;;;;;11.63;9.27;;;8.30;99.90;;;;;;5062254;28;20184;-66
2023/12/27 05:00:13;;;;;;;14.43;8.90;;;8.40;99.90;;;;;;5066602;28;20268;-61
2023/12/27 05:02:39;;;;;;;14.00;9.90;;;8.40;99.90;;;;;;5063283;28;20193;-67
2023/12/27 05:05:05;;;;;;;12.60;9.00;;;8.50;99.90;;;;;;5060146;28;20958;-66
2023/12/27 05:07:31;;;;;;;14.33;8.90;;;8.40;99.90;;;;;;5056573;28;20284;-67
2023/12/27 05:09:57;;;;;;;12.60;9.57;;;8.50;99.90;;;;;;5056281;28;20175;-66
2023/12/27 05:12:22;;;;;;;14.20;9.10;;;8.50;99.90;;;;;;5059453;28;20197;-66
2023/12/27 05:14:48;;;;;;;12.63;8.00;;;8.50;99.90;;;;;;5059205;28;20475;-67
2023/12/27 05:17:14;;;;;;;15.50;9.23;;;8.50;99.90;;;;;;5057689;28;20195;-60
2023/12/27 05:19:40;;;;;;;13.10;9.50;;;8.50;99.90;;;;;;5053530;28;20182;-67
2023/12/27 05:22:05;;;;;;;16.17;9.57;;;8.50;99.90;;;;;;5055270;28;20188;-67
2023/12/27 05:24:31;;;;;;;18.20;8.83;;;8.60;99.90;;;;;;5057990;28;20184;-67
2023/12/27 05:26:57;;;;;;;17.30;9.80;;;8.50;99.90;;;;;;5062388;28;20619;-66
2023/12/27 05:29:23;;;;;;;23.40;9.80;;;8.50;99.90;;;;;;5059260;28;20645;-66
2023/12/27 05:31:48;;;;;;;14.43;10.27;;;8.50;99.90;;;;;;5061271;28;20553;-65
2023/12/27 05:34:14;;;;;;;14.20;9.30;;;8.50;99.90;;;;;;5068914;28;20171;-60
2023/12/27 05:36:40;;;;;;;19.73;10.60;;;8.40;99.90;;;;;;5062084;28;20182;-66
2023/12/27 05:39:06;;;;;;;14.80;9.77;;;8.40;99.90;;;;;;5053122;28;22249;-66
2023/12/27 05:41:31;;;;;;;12.40;9.60;;;8.30;99.90;;;;;;5058854;28;20185;-66
2023/12/27 05:43:57;;;;;;;10.07;9.00;;;8.40;99.90;;;;;;5059221;28;20180;-66
2023/12/27 05:46:23;;;;;;;10.27;8.80;;;8.40;99.90;;;;;;5060168;28;20209;-66
2023/12/27 05:48:49;;;;;;;13.77;9.10;;;8.50;99.90;;;;;;5054535;28;20174;-63
2023/12/27 05:51:14;;;;;;;13.60;8.27;;;8.40;99.90;;;;;;5055829;28;20212;-62
2023/12/27 05:53:41;;;;;;;14.97;9.03;;;8.50;99.90;;;;;;5052145;28;20624;-66
2023/12/27 05:56:07;;;;;;;13.80;8.43;;;8.50;99.90;;;;;;5052176;28;20200;-66
2023/12/27 05:58:33;;;;;;;11.00;8.23;;;8.50;99.90;;;;;;5064419;28;20456;-67
2023/12/27 06:00:59;;;;;;;9.40;7.80;;;8.50;99.90;;;;;;5056332;28;20468;-66
2023/12/27 06:03:24;;;;;;;10.13;8.50;;;8.60;99.90;;;;;;5056786;28;20171;-66
2023/12/27 06:05:50;;;;;;;11.73;8.37;;;8.60;99.90;;;;;;5076717;28;20536;-66
2023/12/27 06:08:20;;;;;;;12.63;8.53;;;8.60;99.90;;;;;;5074264;28;20208;-61
2023/12/27 06:10:46;;;;;;;10.43;8.20;;;8.50;99.90;;;;;;5055999;28;20175;-67
2023/12/27 06:13:13;;;;;;;9.63;7.57;;;8.60;99.90;;;;;;5051205;28;20413;-67
2023/12/27 06:15:38;;;;;;;13.10;8.90;;;8.60;99.90;;;;;;5054660;28;20614;-66
2023/12/27 06:18:04;;;;;;;10.77;8.30;;;8.60;99.90;;;;;;5060742;28;20989;-66
2023/12/27 06:20:30;;;;;;;10.00;7.00;;;8.60;99.90;;;;;;5071194;28;20299;-66
2023/12/27 06:22:56;;;;;;;11.90;8.30;;;8.70;99.90;;;;;;5074649;28;20530;-67
2023/12/27 06:25:21;;;;;;;10.07;6.80;;;8.70;99.90;;;;;;5089966;28;20180;-65
2023/12/27 06:27:48;;;;;;;11.40;7.07;;;8.70;99.90;;;;;;5076420;28;20225;-67
2023/12/27 06:30:14;;;;;;;11.60;7.10;;;8.70;99.90;;;;;;5090978;28;20662;-67
2023/12/27 06:32:39;;;;;;;10.00;7.47;;;8.70;99.90;;;;;;5067543;28;20435;-67
2023/12/27 06:35:06;;;;;;;10.13;6.50;;;8.80;99.90;;;;;;5064538;28;20435;-67
2023/12/27 06:37:32;;;;;;;7.63;6.33;;;8.80;99.90;;;;;;5071223;28;20178;-68
2023/12/27 06:39:57;;;;;;;8.60;6.27;;;8.80;99.90;;;;;;5072092;28;20423;-67
2023/12/27 06:42:23;;;;;;;8.73;6.40;;;8.80;99.90;;;;;;5069313;28;20198;-68
2023/12/27 06:44:49;;;;;;;8.67;6.97;;;8.90;99.90;;;;;;5065090;28;20276;-68
2023/12/27 06:47:15;;;;;;;7.20;6.00;;;9.00;99.90;;;;;;5072887;28;20251;-68
2023/12/27 06:49:41;;;;;;;8.60;6.80;;;9.10;99.90;;;;;;5069468;28;20523;-68
2023/12/27 06:52:06;;;;;;;8.63;6.70;;;9.10;99.90;;;;;;5077622;28;20212;-68
2023/12/27 06:54:32;;;;;;;7.50;6.70;;;9.10;99.90;;;;;;5073044;28;20265;-68
2023/12/27 06:56:59;;;;;;;12.13;7.30;;;9.20;99.90;;;;;;5076079;28;20235;-67
2023/12/27 06:59:29;;;;;;;7.50;6.50;;;9.20;99.90;;;;;;5072787;28;20646;-67
2023/12/27 07:01:54;;;;;;;8.40;7.10;;;9.20;99.90;;;;;;5069498;28;20441;-68
2023/12/27 07:04:20;;;;;;;9.73;6.80;;;9.30;99.90;;;;;;5070374;28;20433;-60
2023/12/27 07:06:46;;;;;;;8.37;6.97;;;9.20;99.90;;;;;;5065193;28;20208;-68
2023/12/27 07:09:12;;;;;;;10.50;7.13;;;9.20;99.90;;;;;;5086153;28;20184;-65
2023/12/27 07:11:38;;;;;;;16.23;9.60;;;9.20;99.90;;;;;;5062780;28;20250;-66
2023/12/27 07:14:04;;;;;;;9.43;8.00;;;9.20;99.90;;;;;;5058425;28;20626;-66
2023/12/27 07:16:30;;;;;;;11.77;7.17;;;9.30;99.90;;;;;;5058528;28;20483;-66
2023/12/27 07:18:56;;;;;;;8.73;7.23;;;9.30;99.90;;;;;;5064197;28;20174;-66
2023/12/27 07:21:22;;;;;;;10.30;7.40;;;9.40;99.90;;;;;;5058858;28;20422;-61
2023/12/27 07:23:48;;;;;;;8.67;6.60;;;9.40;99.90;;;;;;5065450;28;20458;-65
2023/12/27 07:26:14;;;;;;;7.13;6.47;;;9.40;99.90;;;;;;5072070;28;20240;-65
2023/12/27 07:28:40;;;;;;;8.30;7.10;;;9.50;99.90;;;;;;5068399;28;20216;-68
2023/12/27 07:31:07;;;;;;;8.10;6.57;;;9.50;99.90;;;;;;5067078;28;20185;-67
2023/12/27 07:33:37;;;;;;;8.87;7.37;;;9.50;99.90;;;;;;5062840;28;20433;-64
2023/12/27 07:36:02;;;;;;;9.67;7.30;;;9.60;99.90;;;;;;5074430;28;20496;-65
2023/12/27 07:38:28;;;;;;;7.47;6.70;;;9.50;99.90;;;;;;5062972;28;20921;-64
2023/12/27 07:40:56;;;;;;;8.53;6.60;;;9.50;99.90;;;;;;5071050;28;20433;-67
2023/12/27 07:43:22;;;;;;;8.40;6.73;;;9.50;99.90;;;;;;5063275;28;20178;-62
2023/12/27 07:45:48;;;;;;;9.80;6.60;;;9.50;99.90;;;;;;5071213;28;20433;-67
2023/12/27 07:48:14;;;;;;;7.00;6.40;;;9.50;99.90;;;;;;5069173;28;20476;-66
2023/12/27 07:50:40;;;;;;;6.83;6.13;;;9.50;99.90;;;;;;5069214;28;20502;-66
2023/12/27 07:53:06;;;;;;;7.00;6.30;;;9.60;99.90;;;;;;5071656;28;20510;-66
2023/12/27 07:55:35;;;;;;;9.50;5.90;;;9.70;99.90;;;;;;5064206;28;20178;-66
2023/12/27 07:58:00;;;;;;;12.43;6.23;;;9.70;99.90;;;;;;5059430;28;20424;-66
2023/12/27 08:00:26;;;;;;;9.30;6.00;;;9.70;99.90;;;;;;5055309;28;20184;-60
2023/12/27 08:02:53;;;;;;;6.93;5.17;;;9.70;99.90;;;;;;5068464;28;20187;-67
2023/12/27 08:05:18;;;;;;;7.20;6.30;;;9.60;99.90;;;;;;5072334;28;20437;-65
2023/12/27 08:07:45;;;;;;;10.53;5.40;;;9.70;99.90;;;;;;5040660;28;20826;-67
2023/12/27 08:10:10;;;;;;;8.00;5.87;;;9.70;99.90;;;;;;5059525;28;20181;-68
2023/12/27 08:12:36;;;;;;;6.07;5.57;;;9.80;99.90;;;;;;5064942;28;20451;-67
2023/12/27 08:15:06;;;;;;;5.53;5.10;;;9.80;99.90;;;;;;5093971;28;20481;-67
2023/12/27 08:17:33;;;;;;;5.90;5.40;;;9.90;99.90;;;;;;5075109;28;20173;-68
2023/12/27 08:20:00;;;;;;;7.93;4.93;;;9.90;99.90;;;;;;5060729;28;20751;-68
2023/12/27 08:22:25;;;;;;;5.13;4.70;;;10.00;99.90;;;;;;5077429;28;20414;-61
2023/12/27 08:24:51;;;;;;;7.37;5.30;;;9.90;99.90;;;;;;5072020;28;20476;-68
2023/12/27 08:27:17;;;;;;;5.70;5.20;;;10.00;99.90;;;;;;5058456;28;20665;-67
2023/12/27 08:29:44;;;;;;;5.77;5.27;;;10.10;99.90;;;;;;5075080;28;20187;-69
2023/12/27 08:32:11;;;;;;;5.53;5.03;;;10.10;99.90;;;;;;5068402;28;20178;-68
2023/12/27 08:34:36;;;;;;;6.33;5.33;;;10.20;99.90;;;;;;5057576;28;20516;-68
2023/12/27 08:37:02;;;;;;;5.33;5.03;;;10.20;99.90;;;;;;5067765;28;20460;-68
2023/12/27 08:39:28;;;;;;;5.70;5.10;;;10.40;99.90;;;;;;5060215;28;20441;-61
2023/12/27 08:41:54;;;;;;;5.40;5.00;;;10.40;99.90;;;;;;5064129;28;20414;-68
2023/12/27 08:44:20;;;;;;;5.63;5.17;;;10.50;99.90;;;;;;5071683;28;20639;-68
2023/12/27 08:46:45;;;;;;;7.27;5.90;;;10.50;99.90;;;;;;5074060;28;20745;-70
2023/12/27 08:49:11;;;;;;;5.40;4.97;;;10.60;99.90;;;;;;5071827;28;20182;-70
2023/12/27 08:51:37;;;;;;;5.33;4.83;;;10.50;99.90;;;;;;5071013;28;20177;-71
2023/12/27 08:54:03;;;;;;;5.97;4.70;;;10.50;99.90;;;;;;5063045;28;20190;-71
2023/12/27 08:56:29;;;;;;;5.43;4.97;;;10.50;99.90;;;;;;5071955;28;20415;-63
2023/12/27 08:58:55;;;;;;;5.30;4.53;;;10.60;99.90;;;;;;5073133;28;20415;-67
2023/12/27 09:01:20;;;;;;;5.97;5.10;;;10.60;99.90;;;;;;5073531;28;20173;-71
2023/12/27 09:03:48;;;;;;;6.83;4.53;;;10.70;99.90;;;;;;5065020;28;20650;-70
2023/12/27 09:06:14;;;;;;;5.33;4.63;;;10.70;99.90;;;;;;5071438;28;20213;-70
2023/12/27 09:08:40;;;;;;;4.80;4.43;;;10.70;99.90;;;;;;5072904;28;20430;-70
2023/12/27 09:11:06;;;;;;;5.20;4.70;;;10.70;99.90;;;;;;5060205;28;20422;-66
2023/12/27 09:13:32;;;;;;;7.80;5.47;;;10.70;99.90;;;;;;5074144;28;20179;-66
2023/12/27 09:15:57;;;;;;;5.20;4.80;;;10.60;99.90;;;;;;5073153;28;20459;-66
2023/12/27 09:18:23;;;;;;;6.83;5.53;;;10.50;99.90;;;;;;5064886;28;20463;-66
2023/12/27 09:20:49;;;;;;;5.40;5.00;;;10.60;99.90;;;;;;5055641;28;20184;-66
2023/12/27 09:23:14;;;;;;;4.67;4.37;;;10.60;99.90;;;;;;5053103;28;20170;-65
2023/12/27 09:25:40;;;;;;;5.43;5.13;;;10.60;99.90;;;;;;5060323;28;20648;-63
2023/12/27 09:28:06;;;;;;;5.20;4.77;;;10.60;99.90;;;;;;5059505;28;20205;-66
2023/12/27 09:30:32;;;;;;;27.17;17.93;;;10.70;99.90;;;;;;5066902;28;20430;-62
2023/12/27 09:32:58;;;;;;;145.43;85.93;;;10.70;99.90;;;;;;5068029;28;20474;-64
2023/12/27 09:35:24;;;;;;;53.00;37.10;;;10.80;99.90;;;;;;5059345;28;20185;-66
2023/12/27 09:37:49;;;;;;;143.80;83.60;;;10.90;99.90;;;;;;5065240;28;20241;-66
2023/12/27 09:40:15;;;;;;;14.17;9.27;;;10.90;99.90;;;;;;5071784;28;20411;-69
2023/12/27 09:42:43;;;;;;;7.00;6.57;;;11.10;99.90;;;;;;5070168;28;20573;-69
2023/12/27 09:45:16;;;;;;;8.27;7.70;;;11.40;99.90;;;;;;5080704;28;20197;-70
2023/12/27 09:47:43;;;;;;;8.33;7.87;;;11.70;99.90;;;;;;5061427;28;20454;-69
2023/12/27 09:50:09;;;;;;;6.90;6.50;;;12.10;99.90;;;;;;5070285;28;20510;-67
2023/12/27 09:52:38;;;;;;;7.23;6.60;;;12.20;99.90;;;;;;5069590;28;20998;-66
2023/12/27 09:55:05;;;;;;;8.13;7.53;;;12.30;99.90;;;;;;5068586;28;20208;-69
2023/12/27 09:57:31;;;;;;;6.33;6.03;;;12.70;99.90;;;;;;5069763;28;20445;-63
2023/12/27 09:59:59;;;;;;;5.60;5.30;;;12.70;99.90;;;;;;5059904;28;20478;-67
2023/12/27 10:02:28;;;;;;;5.83;5.50;;;12.90;99.90;;;;;;5068879;28;20415;-70
2023/12/27 10:05:19;;;;;;;4.80;4.50;;;13.20;99.90;;;;;;5061220;28;20434;-68
2023/12/27 10:07:45;;;;;;;3.77;3.53;;;13.20;99.90;;;;;;5067328;28;20536;-73
2023/12/27 10:10:11;;;;;;;5.07;4.77;;;13.00;99.90;;;;;;5070634;28;20781;-73
2023/12/27 10:12:37;;;;;;;32.90;20.73;;;12.70;99.90;;;;;;5070337;28;20438;-67
2023/12/27 10:15:04;;;;;;;14.07;12.60;;;12.30;99.90;;;;;;5073440;28;20309;-72
2023/12/27 10:17:31;;;;;;;4.60;4.20;;;12.10;99.90;;;;;;5073645;28;20438;-71
2023/12/27 10:19:56;;;;;;;4.07;3.87;;;12.00;99.90;;;;;;5070134;28;20427;-75
2023/12/27 10:22:23;;;;;;;4.70;4.40;;;11.60;99.90;;;;;;5065467;28;20450;-75
2023/12/27 10:24:48;;;;;;;4.23;3.93;;;11.40;99.90;;;;;;5084636;28;20417;-77
2023/12/27 10:27:17;;;;;;;4.57;4.37;;;11.40;99.90;;;;;;5090880;28;20450;-77
2023/12/27 10:29:48;;;;;;;4.30;4.00;;;11.20;99.90;;;;;;5074391;28;20195;-78
2023/12/27 10:32:18;;;;;;;4.03;3.77;;;11.00;99.90;;;;;;5070983;28;20423;-74
2023/12/27 10:34:45;;;;;;;4.00;3.70;;;11.00;99.90;;;;;;5058996;28;20414;-75
2023/12/27 10:37:12;;;;;;;3.97;3.77;;;11.10;99.90;;;;;;5054567;28;20443;-75
2023/12/27 10:39:44;;;;;;;4.10;3.90;;;11.20;99.90;;;;;;5056437;28;20424;-74
2023/12/27 10:42:17;;;;;;;3.60;3.50;;;11.30;99.90;;;;;;5064755;28;20512;-74
2023/12/27 10:44:45;;;;;;;3.60;3.50;;;11.20;99.90;;;;;;5063449;28;20435;-74
2023/12/27 10:47:18;;;;;;;4.63;4.33;;;11.10;99.90;;;;;;5050413;28;20470;-75
2023/12/27 10:49:48;;;;;;;4.13;3.77;;;11.20;99.90;;;;;;5050871;28;20401;-71
2023/12/27 10:52:17;;;;;;;4.70;4.30;;;11.20;99.90;;;;;;5061652;28;20437;-71
2023/12/27 10:54:47;;;;;;;16.50;13.00;;;11.30;99.90;;;;;;5077652;28;20453;-72
2023/12/27 10:57:22;;;;;;;64.47;46.50;;;11.30;99.90;;;;;;5071702;28;20394;-68
2023/12/27 10:59:49;;;;;;;5.63;5.27;;;11.30;99.90;;;;;;5088177;28;20415;-72
2023/12/27 11:02:17;;;;;;;5.33;5.03;;;11.20;99.90;;;;;;5081055;28;20419;-73
2023/12/27 11:04:46;;;;;;;4.70;4.30;;;11.30;99.90;;;;;;5075171;28;20454;-72
2023/12/27 11:07:15;;;;;;;4.50;4.20;;;11.20;99.90;;;;;;5080706;28;20536;-72
2023/12/27 11:09:42;;;;;;;4.77;4.47;;;11.30;99.90;;;;;;5088005;28;20456;-73
2023/12/27 11:12:09;;;;;;;5.43;5.10;;;11.20;99.90;;;;;;5081072;28;20470;-71
2023/12/27 11:14:36;;;;;;;5.50;5.10;;;11.20;99.90;;;;;;5058618;28;20452;-65
2023/12/27 11:17:05;;;;;;;5.10;4.80;;;11.20;99.90;;;;;;5062665;28;20429;-74
2023/12/27 11:19:33;;;;;;;5.30;4.80;;;11.10;99.90;;;;;;5063237;28;20566;-73
2023/12/27 11:21:59;;;;;;;5.00;4.60;;;11.20;99.90;;;;;;5056906;28;20520;-70
2023/12/27 11:24:25;;;;;;;5.33;4.93;;;11.20;99.90;;;;;;5070955;28;20437;-75
2023/12/27 11:27:01;;;;;;;72.70;55.17;;;11.20;99.90;;;;;;5067757;28;20515;-75
2023/12/27 11:29:30;;;;;;;68.57;54.27;;;11.20;99.90;;;;;;5068291;28;20445;-75
2023/12/27 11:31:58;;;;;;;19.30;15.53;;;11.20;99.90;;;;;;5039422;28;20433;-71
2023/12/27 11:34:25;;;;;;;6.10;5.60;;;11.10;99.90;;;;;;5066334;28;20443;-66
2023/12/27 11:36:51;;;;;;;5.33;4.97;;;11.10;99.90;;;;;;5058933;28;20428;-74
2023/12/27 11:39:24;;;;;;;4.67;4.40;;;11.00;99.90;;;;;;5053845;28;20971;-74
2023/12/27 11:41:50;;;;;;;5.40;5.00;;;11.00;99.90;;;;;;5076092;28;20984;-74
2023/12/27 11:44:17;;;;;;;4.70;4.43;;;11.00;99.90;;;;;;5074638;28;20435;-75
2023/12/27 11:46:43;;;;;;;6.27;5.50;;;11.10;99.90;;;;;;5068398;28;20215;-73
2023/12/27 11:49:17;;;;;;;5.60;5.40;;;11.10;99.90;;;;;;5070027;28;20472;-74
2023/12/27 11:51:43;;;;;;;5.53;5.33;;;10.90;99.90;;;;;;5067476;28;20513;-73
2023/12/27 11:54:24;;;;;;;4.37;4.17;;;11.00;99.90;;;;;;5073409;28;20516;-69
2023/12/27 11:56:52;;;;;;;4.30;4.00;;;11.00;99.90;;;;;;5062212;28;20424;-71
2023/12/27 11:59:18;;;;;;;4.43;4.23;;;11.00;99.90;;;;;;5071706;28;20416;-73
2023/12/27 12:01:45;;;;;;;3.97;3.37;;;11.10;99.90;;;;;;5070687;28;20424;-72
2023/12/27 12:04:31;;;;;;;4.10;3.80;;;11.10;99.90;;;;;;5074244;28;20420;-72
2023/12/27 12:07:33;;;;;;;3.53;3.33;;;11.10;99.90;;;;;;5071924;28;20790;-68
2023/12/27 12:09:59;;;;;;;4.47;4.07;;;11.10;99.90;;;;;;5067456;28;20426;-73
2023/12/27 12:12:25;;;;;;;3.57;3.43;;;11.30;99.90;;;;;;5070770;28;20483;-72
2023/12/27 12:14:52;;;;;;;3.60;3.40;;;11.40;99.90;;;;;;5072158;28;20218;-74
2023/12/27 12:17:21;;;;;;;3.50;3.30;;;11.40;99.90;;;;;;5069706;28;20527;-72
2023/12/27 12:19:49;;;;;;;3.30;3.00;;;11.50;99.90;;;;;;5068742;28;20529;-73
2023/12/27 12:22:15;;;;;;;3.20;3.10;;;11.40;99.90;;;;;;5070536;28;20424;-71
2023/12/27 12:24:42;;;;;;;3.87;3.57;;;11.30;99.90;;;;;;5069945;28;20438;-66
2023/12/27 12:27:10;;;;;;;3.70;3.50;;;11.50;99.90;;;;;;5073839;28;20447;-74
2023/12/27 12:29:36;;;;;;;5.97;4.07;;;11.40;99.90;;;;;;5070831;28;20426;-62
2023/12/27 12:32:03;;;;;;;4.00;3.70;;;11.50;99.90;;;;;;5070895;28;20423;-62
2023/12/27 12:34:29;;;;;;;3.77;3.57;;;11.40;99.90;;;;;;5069947;28;20429;-62
2023/12/27 12:36:55;;;;;;;3.20;3.10;;;11.40;99.90;;;;;;5073041;28;20437;-63
2023/12/27 12:39:22;;;;;;;3.57;3.37;;;11.40;99.90;;;;;;5069544;28;20179;-62
2023/12/27 12:41:48;;;;;;;2.97;2.87;;;11.40;99.90;;;;;;5070896;28;20419;-61
2023/12/27 12:44:14;;;;;;;3.80;3.60;;;11.30;99.90;;;;;;5067230;28;20432;-63